Brandon, United Kingdom
Current Conditions -  °F | °C
As of 12:01 PM on Tuesday 21 Oct 2014 (Local Time) from EGUL Reporting Station
Light Rain Light Rain  
Wind Chill: 54°   Ceiling: 6000
Heat Index: 54°   Visibility: 6mi
Dew Point: 48°   Wind: 21mph
Humidity: 82%   Direction: 290°WNW
Pressure: 29.56"   Gusts: 33mph
Location:  52.45°N, 0.63°E
Report Text: EGUL 211101Z AUTO 29018G29KT 9999 -RA FEW023 SCT037 SCT044 BKN060 12/09 A2956 RMK AO2
Loading
Personal Weather Stations






























Interactive Weather Map
Tropical Storm Tracking
New forecast layout! Learn more

10-Day Weather Forecast

Advertisements
Track Severe Weather on mobile